Time;durP1;ratioP1;P1;durP2;ratioP2;P2;SDS_P1;SDS_P2;PMS_P1;PMS_P2;Temp;Humidity;BMP_temperature;BMP_pressure;BME280_temperature;BME280_humidity;BME280_pressure;Samples;Min_cycle;Max_cycle;Signal;HPM_P1;HPM_P2
2022/03/08 00:01:52;;;;;;;19.23;9.63;;;2.20;99.90;;;;;;4980142;28;20034;-77
2022/03/08 00:04:17;;;;;;;12.02;8.55;;;2.20;99.90;;;;;;4997893;28;20042;-77
2022/03/08 00:06:44;;;;;;;12.35;8.98;;;2.20;99.90;;;;;;4980389;28;20134;-77
2022/03/08 00:09:10;;;;;;;13.32;8.40;;;2.20;99.90;;;;;;4979403;28;20043;-76
2022/03/08 00:11:35;;;;;;;15.70;8.68;;;2.10;99.90;;;;;;4979525;28;20109;-77
2022/03/08 00:14:01;;;;;;;13.00;8.43;;;2.20;99.90;;;;;;4979723;28;20042;-77
2022/03/08 00:16:26;;;;;;;14.18;9.30;;;2.10;99.90;;;;;;4980034;28;20463;-77
2022/03/08 00:18:52;;;;;;;16.30;9.45;;;2.20;99.90;;;;;;4996784;28;20054;-77
2022/03/08 00:21:18;;;;;;;14.45;8.90;;;2.10;99.90;;;;;;4979998;28;20042;-77
2022/03/08 00:23:45;;;;;;;13.38;8.50;;;2.10;99.90;;;;;;4979341;28;20535;-77
2022/03/08 00:26:10;;;;;;;14.57;9.48;;;2.10;99.90;;;;;;4996653;28;20050;-77
2022/03/08 00:28:36;;;;;;;15.10;9.68;;;2.10;99.90;;;;;;4996485;28;20061;-76
2022/03/08 00:31:02;;;;;;;16.33;9.80;;;2.00;99.90;;;;;;4996327;28;20433;-77
2022/03/08 00:33:28;;;;;;;13.27;8.90;;;2.00;99.90;;;;;;4979301;28;20113;-77
2022/03/08 00:35:54;;;;;;;13.50;9.25;;;2.00;99.90;;;;;;4996254;28;20038;-78
2022/03/08 00:38:21;;;;;;;14.00;9.38;;;2.00;99.90;;;;;;4979405;28;20348;-77
2022/03/08 00:40:46;;;;;;;13.82;8.95;;;1.90;99.90;;;;;;4978813;28;20073;-77
2022/03/08 00:43:12;;;;;;;13.77;8.75;;;2.00;99.90;;;;;;4979278;28;20132;-76
2022/03/08 00:45:38;;;;;;;14.77;9.20;;;2.00;99.90;;;;;;4963554;28;20046;-77
2022/03/08 00:48:05;;;;;;;15.82;9.77;;;1.90;99.90;;;;;;4996207;28;20455;-77
2022/03/08 00:50:33;;;;;;;13.27;8.48;;;1.90;99.90;;;;;;4996302;28;20157;-77
2022/03/08 00:52:59;;;;;;;14.70;9.23;;;1.90;99.90;;;;;;4979207;28;20059;-77
2022/03/08 00:55:27;;;;;;;15.43;9.02;;;1.90;99.90;;;;;;4995824;28;20321;-77
2022/03/08 00:57:54;;;;;;;13.48;9.05;;;1.90;99.90;;;;;;4996047;28;20058;-77
2022/03/08 01:00:23;;;;;;;14.38;9.30;;;2.00;99.90;;;;;;4995901;28;20054;-76
2022/03/08 01:02:49;;;;;;;14.65;8.80;;;2.00;99.90;;;;;;4977754;28;20061;-77
2022/03/08 01:05:15;;;;;;;13.07;8.27;;;2.00;99.90;;;;;;4996311;28;20034;-77
2022/03/08 01:07:41;;;;;;;12.38;8.57;;;2.00;99.90;;;;;;4961881;28;20034;-76
2022/03/08 01:10:09;;;;;;;13.13;8.63;;;2.00;99.90;;;;;;4962585;28;20061;-77
2022/03/08 01:12:35;;;;;;;13.35;8.93;;;2.00;99.90;;;;;;4992501;28;20071;-77
2022/03/08 01:15:04;;;;;;;17.38;9.48;;;2.00;99.90;;;;;;4978710;28;20318;-76
2022/03/08 01:17:30;;;;;;;14.38;8.88;;;2.00;99.90;;;;;;4996104;28;20074;-76
2022/03/08 01:19:55;;;;;;;15.65;8.88;;;2.00;99.90;;;;;;4995870;28;20081;-77
2022/03/08 01:22:21;;;;;;;15.73;10.02;;;2.00;99.90;;;;;;4978271;28;20479;-77
2022/03/08 01:24:47;;;;;;;15.95;8.05;;;2.00;99.90;;;;;;4978569;28;20441;-76
2022/03/08 01:27:12;;;;;;;13.35;8.00;;;2.00;99.90;;;;;;4995183;28;20053;-76
2022/03/08 01:29:38;;;;;;;13.25;8.93;;;2.00;99.90;;;;;;4995285;28;20047;-76
2022/03/08 01:32:04;;;;;;;11.57;8.30;;;1.90;99.90;;;;;;4978522;28;20050;-76
2022/03/08 01:34:30;;;;;;;13.55;8.68;;;2.00;99.90;;;;;;4978480;28;20046;-77
2022/03/08 01:36:55;;;;;;;13.57;8.70;;;2.00;99.90;;;;;;4978433;28;20433;-77
2022/03/08 01:39:22;;;;;;;13.18;8.55;;;1.90;99.90;;;;;;4978195;28;20046;-76
2022/03/08 01:41:47;;;;;;;13.73;9.45;;;2.00;99.90;;;;;;4984399;28;20113;-77
2022/03/08 01:44:13;;;;;;;12.85;8.45;;;2.00;99.90;;;;;;4995439;28;20341;-76
2022/03/08 01:46:40;;;;;;;14.20;8.80;;;1.90;99.90;;;;;;4995391;28;20034;-76
2022/03/08 01:49:06;;;;;;;16.23;8.95;;;2.00;99.90;;;;;;4961135;28;20050;-76
2022/03/08 01:51:34;;;;;;;13.35;9.02;;;1.90;99.90;;;;;;4978359;28;20385;-76
2022/03/08 01:53:59;;;;;;;17.80;9.13;;;1.90;99.90;;;;;;4978318;28;20096;-76
2022/03/08 01:56:26;;;;;;;14.18;9.10;;;1.90;99.90;;;;;;4994572;28;20038;-76
2022/03/08 01:58:52;;;;;;;12.43;8.45;;;1.80;99.90;;;;;;4977956;28;20076;-76
2022/03/08 02:01:17;;;;;;;11.40;8.23;;;1.80;99.90;;;;;;4978088;28;20488;-76
2022/03/08 02:03:43;;;;;;;13.07;8.88;;;1.90;99.90;;;;;;4995384;28;20318;-77
2022/03/08 02:06:09;;;;;;;14.98;9.52;;;1.80;99.90;;;;;;4995209;28;20116;-76
2022/03/08 02:08:34;;;;;;;14.05;9.25;;;1.70;99.90;;;;;;4994995;28;20050;-76
2022/03/08 02:11:00;;;;;;;14.00;9.27;;;1.70;99.90;;;;;;4994964;28;20082;-76
2022/03/08 02:13:26;;;;;;;15.02;8.98;;;1.70;99.90;;;;;;4995250;28;20437;-76
2022/03/08 02:15:52;;;;;;;13.50;8.93;;;1.70;99.90;;;;;;4998841;28;20093;-76
2022/03/08 02:18:18;;;;;;;14.63;9.35;;;1.60;99.90;;;;;;4981626;28;20444;-76
2022/03/08 02:20:44;;;;;;;14.57;8.95;;;1.60;99.90;;;;;;4999278;28;20146;-76
2022/03/08 02:23:10;;;;;;;13.25;8.93;;;1.60;99.90;;;;;;4998533;28;20503;-76
2022/03/08 02:25:36;;;;;;;13.55;8.45;;;1.60;99.90;;;;;;4981932;28;20054;-76
2022/03/08 02:28:02;;;;;;;16.60;9.35;;;1.60;99.90;;;;;;4981396;28;20042;-77
2022/03/08 02:30:27;;;;;;;15.13;9.60;;;1.50;99.90;;;;;;4981911;28;20057;-76
2022/03/08 02:32:54;;;;;;;13.93;9.05;;;1.50;99.90;;;;;;4999078;28;20050;-76
2022/03/08 02:35:22;;;;;;;13.48;9.30;;;1.50;99.90;;;;;;4998698;28;20042;-76
2022/03/08 02:37:50;;;;;;;17.63;10.07;;;1.40;99.90;;;;;;4981299;28;20038;-76
2022/03/08 02:40:18;;;;;;;12.45;9.02;;;1.40;99.90;;;;;;4981877;28;20344;-76
2022/03/08 02:42:44;;;;;;;15.25;9.80;;;1.40;99.90;;;;;;4981475;28;20049;-76
2022/03/08 02:45:11;;;;;;;15.25;10.25;;;1.30;99.90;;;;;;4998584;28;20046;-77
2022/03/08 02:47:37;;;;;;;15.82;9.90;;;1.30;99.90;;;;;;4981488;28;20057;-77
2022/03/08 02:50:06;;;;;;;16.23;9.65;;;1.30;99.90;;;;;;4998790;28;20373;-76
2022/03/08 02:52:33;;;;;;;16.35;10.07;;;1.30;99.90;;;;;;4965023;28;20325;-77
2022/03/08 02:54:58;;;;;;;14.00;9.82;;;1.40;99.90;;;;;;4998517;28;20046;-76
2022/03/08 02:57:24;;;;;;;16.30;10.18;;;1.30;99.90;;;;;;4998416;28;20356;-76
2022/03/08 02:59:49;;;;;;;16.65;10.73;;;1.30;99.90;;;;;;4998381;28;20116;-76
2022/03/08 03:02:15;;;;;;;15.10;9.57;;;1.40;99.90;;;;;;4998624;28;20049;-76
2022/03/08 03:04:42;;;;;;;15.18;10.05;;;1.40;99.90;;;;;;4981367;28;20390;-76
2022/03/08 03:07:07;;;;;;;16.83;10.05;;;1.40;99.90;;;;;;4997429;28;20129;-76
2022/03/08 03:09:33;;;;;;;16.27;9.75;;;1.40;99.90;;;;;;4998145;28;20133;-76
2022/03/08 03:11:58;;;;;;;16.55;10.35;;;1.40;99.90;;;;;;4980920;28;20046;-76
2022/03/08 03:14:24;;;;;;;16.13;10.00;;;1.40;99.90;;;;;;4980933;28;20042;-77
2022/03/08 03:16:50;;;;;;;16.70;10.02;;;1.40;99.90;;;;;;4980558;28;20058;-76
2022/03/08 03:19:15;;;;;;;15.20;10.45;;;1.40;99.90;;;;;;4981013;28;20093;-76
2022/03/08 03:21:41;;;;;;;15.85;9.93;;;1.40;99.90;;;;;;4979834;28;20081;-76
2022/03/08 03:24:06;;;;;;;15.13;10.88;;;1.40;99.90;;;;;;4980979;28;20407;-76
2022/03/08 03:26:32;;;;;;;15.95;11.25;;;1.40;99.90;;;;;;4979526;28;20568;-77
2022/03/08 03:28:57;;;;;;;18.10;11.55;;;1.40;99.90;;;;;;4997778;28;20050;-76
2022/03/08 03:31:23;;;;;;;15.02;10.80;;;1.50;99.90;;;;;;4997746;28;20078;-76
2022/03/08 03:33:49;;;;;;;16.52;11.15;;;1.50;99.90;;;;;;4997807;28;20053;-76
2022/03/08 03:36:14;;;;;;;17.65;11.50;;;1.50;99.90;;;;;;4997085;28;20038;-77
2022/03/08 03:38:40;;;;;;;17.38;11.68;;;1.50;99.90;;;;;;4980096;28;20105;-76
2022/03/08 03:41:05;;;;;;;18.48;11.90;;;1.50;99.90;;;;;;4997560;28;20081;-76
2022/03/08 03:43:31;;;;;;;18.15;11.13;;;1.50;99.90;;;;;;4980636;28;20437;-76
2022/03/08 03:45:57;;;;;;;16.58;11.13;;;1.50;99.90;;;;;;4997085;28;20352;-76
2022/03/08 03:48:22;;;;;;;17.17;11.38;;;1.50;99.90;;;;;;4997346;28;20092;-76
2022/03/08 03:50:48;;;;;;;18.08;11.10;;;1.50;99.90;;;;;;4997408;28;20046;-76
2022/03/08 03:53:13;;;;;;;20.23;11.88;;;1.50;99.90;;;;;;4980848;28;20365;-76
2022/03/08 03:55:39;;;;;;;19.90;12.02;;;1.50;99.90;;;;;;4980098;28;20050;-76
2022/03/08 03:58:04;;;;;;;18.90;12.50;;;1.40;99.90;;;;;;4963661;28;20057;-77
2022/03/08 04:00:30;;;;;;;23.90;13.27;;;1.40;99.90;;;;;;4980115;28;20053;-76
2022/03/08 04:02:56;;;;;;;20.35;12.90;;;1.40;99.90;;;;;;4980268;28;20088;-76
2022/03/08 04:05:21;;;;;;;19.92;12.82;;;1.40;99.90;;;;;;4979377;28;20463;-76
2022/03/08 04:07:47;;;;;;;21.17;13.35;;;1.40;99.90;;;;;;4997096;28;20039;-76
2022/03/08 04:10:14;;;;;;;19.27;12.80;;;1.40;99.90;;;;;;4996630;28;20054;-76
2022/03/08 04:12:40;;;;;;;20.42;12.98;;;1.40;99.90;;;;;;4996749;28;20056;-76
2022/03/08 04:15:06;;;;;;;20.92;13.43;;;1.50;99.90;;;;;;4996825;28;20129;-76
2022/03/08 04:17:32;;;;;;;20.23;12.77;;;1.50;99.90;;;;;;4996872;28;20038;-76
2022/03/08 04:19:57;;;;;;;22.73;13.65;;;1.50;99.90;;;;;;4996162;28;20045;-76
2022/03/08 04:22:23;;;;;;;21.33;13.32;;;1.50;99.90;;;;;;4980199;28;20046;-76
2022/03/08 04:24:49;;;;;;;21.13;13.60;;;1.50;99.90;;;;;;4979666;28;20429;-76
2022/03/08 04:27:14;;;;;;;18.92;12.70;;;1.50;99.90;;;;;;4979634;28;20039;-76
2022/03/08 04:29:40;;;;;;;20.33;13.35;;;1.50;99.90;;;;;;4996727;28;20042;-76
2022/03/08 04:32:06;;;;;;;21.08;13.50;;;1.50;99.90;;;;;;4996297;28;20039;-76
2022/03/08 04:34:32;;;;;;;18.25;12.60;;;1.40;99.90;;;;;;4979147;28;20058;-76
2022/03/08 04:36:57;;;;;;;23.10;14.13;;;1.40;99.90;;;;;;4979318;28;20049;-75
2022/03/08 04:39:23;;;;;;;20.27;12.95;;;1.40;99.90;;;;;;4996455;28;20042;-76
2022/03/08 04:41:48;;;;;;;23.85;13.95;;;1.40;99.90;;;;;;4979400;28;20352;-76
2022/03/08 04:44:14;;;;;;;19.98;13.85;;;1.40;99.90;;;;;;4996178;28;20121;-76
2022/03/08 04:46:40;;;;;;;20.27;14.32;;;1.40;99.90;;;;;;4996027;28;20169;-76
2022/03/08 04:49:06;;;;;;;22.52;13.38;;;1.40;99.90;;;;;;4996321;28;20042;-76
2022/03/08 04:51:32;;;;;;;20.08;14.27;;;1.40;99.90;;;;;;4996050;28;20333;-76
2022/03/08 04:53:57;;;;;;;21.00;13.95;;;1.40;99.90;;;;;;4996174;28;20053;-76
2022/03/08 04:56:23;;;;;;;25.98;14.68;;;1.40;99.90;;;;;;4996096;28;20077;-77
2022/03/08 04:58:48;;;;;;;23.70;13.25;;;1.40;99.90;;;;;;4995741;28;20061;-76
2022/03/08 05:01:15;;;;;;;22.48;13.65;;;1.30;99.90;;;;;;4975607;28;20091;-75
2022/03/08 05:03:41;;;;;;;22.17;13.95;;;1.40;99.90;;;;;;4959547;28;20047;-76
2022/03/08 05:06:07;;;;;;;22.95;13.82;;;1.30;99.90;;;;;;4978646;28;20049;-76
2022/03/08 05:08:33;;;;;;;19.27;13.38;;;1.30;99.90;;;;;;4995815;28;20046;-76
2022/03/08 05:10:59;;;;;;;20.33;13.93;;;1.30;99.90;;;;;;4995888;28;20112;-76
2022/03/08 05:13:25;;;;;;;20.52;13.27;;;1.30;99.90;;;;;;4995833;28;20441;-76
2022/03/08 05:15:51;;;;;;;23.13;15.63;;;1.20;99.90;;;;;;4971845;28;20092;-76
2022/03/08 05:18:18;;;;;;;21.08;13.55;;;1.20;99.90;;;;;;4978340;28;20364;-76
2022/03/08 05:20:44;;;;;;;21.45;14.15;;;1.30;99.90;;;;;;4995774;28;20061;-76
2022/03/08 05:23:09;;;;;;;20.20;13.10;;;1.30;99.90;;;;;;4978963;28;20050;-76
2022/03/08 05:25:35;;;;;;;21.50;13.63;;;1.30;99.90;;;;;;4978313;28;20348;-76
2022/03/08 05:28:00;;;;;;;19.90;13.57;;;1.20;99.90;;;;;;4978793;28;20132;-76
2022/03/08 05:30:26;;;;;;;24.67;14.70;;;1.20;99.90;;;;;;4976155;28;20074;-76
2022/03/08 05:32:52;;;;;;;21.88;13.77;;;1.30;99.90;;;;;;4978377;28;20042;-77
2022/03/08 05:35:18;;;;;;;23.88;14.57;;;1.30;99.90;;;;;;4978655;28;20057;-76
2022/03/08 05:37:44;;;;;;;21.23;13.85;;;1.20;99.90;;;;;;4995620;28;20365;-76
2022/03/08 05:40:09;;;;;;;21.25;13.90;;;1.20;99.90;;;;;;4978537;28;20039;-76
2022/03/08 05:42:38;;;;;;;20.42;13.32;;;1.20;99.90;;;;;;4995599;28;20081;-75
2022/03/08 05:45:05;;;;;;;21.58;13.85;;;1.20;99.90;;;;;;4995397;28;20053;-75
2022/03/08 05:47:30;;;;;;;23.27;14.77;;;1.20;99.90;;;;;;4992095;28;20038;-76
2022/03/08 05:49:56;;;;;;;20.58;13.93;;;1.20;99.90;;;;;;4997471;28;20046;-76
2022/03/08 05:52:22;;;;;;;24.85;15.27;;;1.20;99.90;;;;;;4999121;28;20058;-76
2022/03/08 05:54:47;;;;;;;18.80;13.27;;;1.20;99.90;;;;;;4999175;28;20352;-76
2022/03/08 05:57:14;;;;;;;22.45;14.57;;;1.20;99.90;;;;;;4999263;28;20375;-76
2022/03/08 05:59:39;;;;;;;22.52;15.23;;;1.20;99.90;;;;;;4982468;28;20050;-75
2022/03/08 06:02:05;;;;;;;23.13;14.13;;;1.10;99.90;;;;;;4998965;28;20048;-76
2022/03/08 06:04:30;;;;;;;24.30;14.68;;;1.10;99.90;;;;;;4999185;28;20396;-76
2022/03/08 06:06:56;;;;;;;25.35;14.95;;;1.10;99.90;;;;;;4999197;28;20507;-75
2022/03/08 06:09:22;;;;;;;22.48;15.10;;;1.10;99.90;;;;;;4999274;28;20433;-76
2022/03/08 06:11:47;;;;;;;26.83;15.73;;;1.10;99.90;;;;;;4981960;28;20042;-76
2022/03/08 06:14:13;;;;;;;27.83;15.10;;;1.10;99.90;;;;;;4999261;28;20128;-76
2022/03/08 06:16:38;;;;;;;24.02;14.55;;;1.10;99.90;;;;;;4981875;28;20077;-76
2022/03/08 06:19:04;;;;;;;23.08;14.73;;;1.10;99.90;;;;;;4991050;28;20125;-75
2022/03/08 06:21:29;;;;;;;24.35;15.18;;;1.10;99.90;;;;;;4981597;28;20449;-76
2022/03/08 06:23:55;;;;;;;24.58;14.00;;;1.10;99.90;;;;;;4999006;28;20101;-75
2022/03/08 06:26:20;;;;;;;24.63;15.10;;;1.10;99.90;;;;;;4998531;28;20057;-76
2022/03/08 06:28:46;;;;;;;21.40;14.52;;;1.10;99.90;;;;;;4998837;28;20471;-76
2022/03/08 06:31:11;;;;;;;18.92;13.40;;;1.20;99.90;;;;;;4998676;28;20038;-76
2022/03/08 06:33:37;;;;;;;22.42;14.75;;;1.20;99.90;;;;;;4981427;28;20046;-76
2022/03/08 06:36:03;;;;;;;21.30;14.27;;;1.20;99.90;;;;;;4981548;28;20120;-76
2022/03/08 06:38:28;;;;;;;22.58;14.77;;;1.20;99.90;;;;;;4998824;28;20045;-76
2022/03/08 06:40:56;;;;;;;22.13;15.10;;;1.20;99.90;;;;;;4998518;28;20411;-75
2022/03/08 06:43:21;;;;;;;22.52;14.77;;;1.30;99.90;;;;;;4998649;28;20035;-76
2022/03/08 06:45:47;;;;;;;22.40;15.23;;;1.30;99.90;;;;;;4981273;28;20042;-76
2022/03/08 06:48:12;;;;;;;22.08;14.48;;;1.30;99.90;;;;;;4997542;28;20092;-76
2022/03/08 06:50:38;;;;;;;23.02;14.73;;;1.30;99.90;;;;;;4981373;28;20034;-76
2022/03/08 06:53:04;;;;;;;22.35;14.98;;;1.30;99.90;;;;;;4973484;28;20437;-76
2022/03/08 06:55:29;;;;;;;23.90;15.20;;;1.30;99.90;;;;;;4998345;28;20061;-76
2022/03/08 06:57:55;;;;;;;20.08;13.43;;;1.30;99.90;;;;;;4997885;28;20377;-76
2022/03/08 07:00:21;;;;;;;21.23;14.07;;;1.40;99.90;;;;;;4998339;28;20050;-75
2022/03/08 07:02:46;;;;;;;23.23;15.05;;;1.40;99.90;;;;;;4997343;28;20046;-76
2022/03/08 07:05:12;;;;;;;21.90;14.25;;;1.40;99.90;;;;;;4998157;28;20038;-75
2022/03/08 07:07:38;;;;;;;20.63;13.60;;;1.40;99.90;;;;;;4980900;28;20136;-76
2022/03/08 07:10:08;;;;;;;21.85;13.40;;;1.50;99.90;;;;;;4981096;28;20046;-76
2022/03/08 07:12:33;;;;;;;25.02;14.35;;;1.50;99.90;;;;;;4998234;28;20050;-75
2022/03/08 07:14:59;;;;;;;23.80;14.55;;;1.50;99.90;;;;;;4998136;28;20054;-75
2022/03/08 07:17:24;;;;;;;21.45;14.65;;;1.60;99.90;;;;;;4997454;28;20053;-76
2022/03/08 07:19:50;;;;;;;22.27;14.88;;;1.60;99.90;;;;;;4996682;28;20045;-76
2022/03/08 07:22:17;;;;;;;20.67;15.02;;;1.60;99.90;;;;;;4981215;28;20046;-76
2022/03/08 07:24:43;;;;;;;22.70;14.60;;;1.70;99.90;;;;;;4997735;28;20074;-76
2022/03/08 07:27:08;;;;;;;21.17;14.05;;;1.70;99.90;;;;;;4997487;28;20409;-76
2022/03/08 07:29:35;;;;;;;21.63;14.68;;;1.70;99.90;;;;;;4980126;28;20054;-75
2022/03/08 07:32:01;;;;;;;23.33;13.60;;;1.80;99.90;;;;;;4997551;28;20100;-76
2022/03/08 07:34:26;;;;;;;18.98;13.10;;;1.90;99.90;;;;;;4997137;28;20070;-76
2022/03/08 07:36:52;;;;;;;18.98;13.68;;;1.90;99.90;;;;;;4997751;28;20096;-75
2022/03/08 07:39:17;;;;;;;20.33;14.00;;;2.00;99.90;;;;;;4997619;28;20074;-76
2022/03/08 07:41:43;;;;;;;18.55;13.23;;;2.00;99.90;;;;;;4997263;28;20045;-76
2022/03/08 07:44:08;;;;;;;23.40;14.02;;;2.00;99.90;;;;;;4997486;28;20049;-75
2022/03/08 07:46:34;;;;;;;19.27;13.80;;;2.10;99.90;;;;;;4979958;28;20046;-75
2022/03/08 07:49:00;;;;;;;19.98;13.63;;;2.10;99.90;;;;;;4996592;28;20034;-75
2022/03/08 07:51:26;;;;;;;19.23;13.65;;;2.20;99.90;;;;;;4997098;28;20038;-76
2022/03/08 07:53:52;;;;;;;21.02;13.05;;;2.20;99.90;;;;;;4991670;28;20053;-71
2022/03/08 07:56:17;;;;;;;23.58;14.00;;;2.20;99.90;;;;;;4997190;28;20050;-74
2022/03/08 07:58:43;;;;;;;18.73;13.05;;;2.30;99.90;;;;;;4997088;28;20057;-76
2022/03/08 08:01:08;;;;;;;21.33;14.23;;;2.30;99.90;;;;;;4997051;28;20050;-73
2022/03/08 08:03:34;;;;;;;20.90;12.93;;;2.30;99.90;;;;;;4996815;28;20085;-77
2022/03/08 08:06:02;;;;;;;19.73;13.40;;;2.30;99.90;;;;;;4997061;28;20200;-76
2022/03/08 08:08:27;;;;;;;19.45;13.57;;;2.40;99.90;;;;;;4996889;28;20093;-76
2022/03/08 08:10:53;;;;;;;21.60;13.68;;;2.40;99.90;;;;;;4979575;28;20042;-78
2022/03/08 08:13:19;;;;;;;21.20;13.43;;;2.50;99.90;;;;;;4996443;28;20116;-80
2022/03/08 08:15:44;;;;;;;20.48;12.70;;;2.50;99.90;;;;;;4979126;28;20419;-78
2022/03/08 08:18:12;;;;;;;16.77;12.30;;;2.50;99.90;;;;;;4979242;28;20108;-79
2022/03/08 08:20:38;;;;;;;18.05;12.95;;;2.70;99.90;;;;;;4979410;28;20038;-77
2022/03/08 08:23:04;;;;;;;16.55;11.23;;;2.60;99.90;;;;;;4996695;28;20334;-77
2022/03/08 08:25:29;;;;;;;19.85;12.07;;;2.70;99.90;;;;;;4979480;28;20038;-74
2022/03/08 08:27:55;;;;;;;17.70;12.23;;;2.80;99.90;;;;;;4979591;28;20365;-77
2022/03/08 08:30:20;;;;;;;20.48;11.80;;;2.80;99.90;;;;;;4996395;28;20046;-78
2022/03/08 08:32:46;;;;;;;18.00;11.82;;;2.90;99.90;;;;;;4979469;28;20042;-76
2022/03/08 08:35:12;;;;;;;18.95;12.65;;;2.90;99.90;;;;;;4979042;28;20077;-76
2022/03/08 08:37:37;;;;;;;20.40;12.38;;;3.00;99.90;;;;;;4996530;28;20054;-76
2022/03/08 08:40:05;;;;;;;20.73;12.55;;;3.00;99.90;;;;;;4979628;28;20061;-75
2022/03/08 08:42:30;;;;;;;16.33;11.48;;;3.10;99.90;;;;;;4979067;28;20046;-77
2022/03/08 08:44:56;;;;;;;15.95;11.13;;;3.20;99.90;;;;;;4993308;28;20042;-74
2022/03/08 08:47:22;;;;;;;14.07;10.77;;;3.20;99.90;;;;;;4995195;28;20340;-78
2022/03/08 08:49:47;;;;;;;14.85;11.38;;;3.30;99.90;;;;;;4978960;28;20450;-76
2022/03/08 08:52:13;;;;;;;16.25;11.77;;;3.40;99.90;;;;;;4959359;28;20058;-81
2022/03/08 08:54:38;;;;;;;16.95;12.35;;;3.40;99.90;;;;;;4972921;28;20046;-75
2022/03/08 08:57:04;;;;;;;15.38;11.73;;;3.40;99.90;;;;;;4976924;28;20125;-78
2022/03/08 08:59:30;;;;;;;15.38;11.52;;;3.50;99.90;;;;;;4976610;28;20467;-78
2022/03/08 09:01:56;;;;;;;15.10;11.73;;;3.60;99.90;;;;;;4961082;28;20049;-76
2022/03/08 09:04:21;;;;;;;19.08;11.25;;;3.70;99.90;;;;;;4996030;28;20062;-76
2022/03/08 09:06:47;;;;;;;15.40;11.73;;;3.70;99.90;;;;;;4978888;28;20138;-79
2022/03/08 09:09:12;;;;;;;14.80;11.23;;;3.80;99.90;;;;;;4946530;28;20121;-80
2022/03/08 09:11:38;;;;;;;17.17;11.68;;;3.90;99.90;;;;;;4959623;28;20051;-75
2022/03/08 09:14:04;;;;;;;15.20;11.27;;;3.90;99.90;;;;;;4971079;28;20038;-79
2022/03/08 09:16:30;;;;;;;15.77;11.30;;;4.00;99.90;;;;;;4923839;29;20074;-77
2022/03/08 09:18:56;;;;;;;20.67;11.90;;;4.00;99.90;;;;;;4920252;29;20064;-78
2022/03/08 09:21:22;;;;;;;16.95;10.70;;;4.20;99.90;;;;;;4930710;29;20080;-79
2022/03/08 09:23:48;;;;;;;15.20;10.70;;;4.20;99.90;;;;;;4935337;29;20426;-79
2022/03/08 09:26:13;;;;;;;14.50;10.07;;;4.30;99.90;;;;;;4936118;29;20121;-79
2022/03/08 09:28:39;;;;;;;14.82;10.57;;;4.40;99.90;;;;;;4919415;29;20093;-80
2022/03/08 09:31:05;;;;;;;14.95;10.50;;;4.60;99.90;;;;;;4919693;29;20062;-79
2022/03/08 09:33:30;;;;;;;15.73;10.70;;;4.60;99.90;;;;;;4917117;29;20055;-79
2022/03/08 09:35:56;;;;;;;12.32;9.25;;;4.80;99.90;;;;;;4918939;29;20150;-79
2022/03/08 09:38:22;;;;;;;15.60;9.65;;;4.80;99.90;;;;;;4935584;29;20039;-75
2022/03/08 09:40:47;;;;;;;14.85;10.23;;;4.90;99.90;;;;;;4935600;29;20047;-76
2022/03/08 09:43:15;;;;;;;16.08;10.38;;;5.00;99.90;;;;;;4935222;29;20070;-76
2022/03/08 09:45:42;;;;;;;14.90;10.40;;;5.10;99.90;;;;;;4935580;29;20093;-76
2022/03/08 09:48:08;;;;;;;23.48;13.68;;;5.10;99.90;;;;;;4962885;28;20120;-77
2022/03/08 09:50:33;;;;;;;15.73;10.40;;;5.20;99.90;;;;;;4975005;28;20397;-77
2022/03/08 09:53:00;;;;;;;14.20;9.65;;;5.30;99.90;;;;;;4994893;28;20567;-74
2022/03/08 09:55:26;;;;;;;15.82;9.57;;;5.30;99.90;;;;;;4978577;28;20042;-75
2022/03/08 09:57:53;;;;;;;13.40;9.98;;;5.30;99.90;;;;;;4977710;28;20065;-74
2022/03/08 10:00:21;;;;;;;12.27;9.68;;;5.40;99.90;;;;;;4977954;28;20046;-76
2022/03/08 10:02:55;;;;;;;12.18;9.35;;;5.50;99.90;;;;;;4978528;28;20118;-83
2022/03/08 10:05:40;;;;;;;13.05;9.20;;;5.50;99.90;;;;;;4962479;28;20046;-74
2022/03/08 10:08:21;;;;;;;13.18;9.35;;;5.60;99.90;;;;;;4993727;28;20079;-74
2022/03/08 10:10:58;;;;;;;12.15;8.15;;;5.70;99.90;;;;;;4992792;28;20073;-73
2022/03/08 10:13:28;;;;;;;13.38;8.82;;;5.80;99.90;;;;;;4995290;28;20046;-76
2022/03/08 10:16:24;;;;;;;11.95;9.02;;;5.90;99.90;;;;;;4995160;28;20210;-73
2022/03/08 10:19:02;;;;;;;10.27;8.40;;;5.90;99.90;;;;;;4994937;28;20112;-75
2022/03/08 10:21:39;;;;;;;11.70;8.68;;;6.00;99.90;;;;;;4995162;28;20121;-74
2022/03/08 10:24:16;;;;;;;9.50;7.65;;;6.10;99.90;;;;;;4994617;28;20456;-75
2022/03/08 10:26:50;;;;;;;12.70;8.10;;;6.20;99.90;;;;;;4994986;28;20038;-75
2022/03/08 10:29:28;;;;;;;11.18;8.10;;;6.30;99.90;;;;;;4994342;28;20035;-76
2022/03/08 10:32:19;;;;;;;9.25;7.45;;;6.30;99.90;;;;;;4977890;28;20046;-76
2022/03/08 10:34:49;;;;;;;10.50;7.95;;;6.30;99.90;;;;;;4978219;28;20042;-76
2022/03/08 10:37:20;;;;;;;10.27;8.40;;;6.40;99.90;;;;;;4979277;28;20130;-74
2022/03/08 10:39:59;;;;;;;9.50;8.38;;;6.50;99.90;;;;;;4961884;28;20074;-72
2022/03/08 10:42:28;;;;;;;14.35;8.15;;;6.50;99.90;;;;;;4978643;28;20429;-73
2022/03/08 10:45:03;;;;;;;11.57;8.75;;;6.50;99.90;;;;;;4978981;28;20137;-75
2022/03/08 10:47:50;;;;;;;10.45;8.30;;;6.70;99.90;;;;;;4977321;28;20442;-75
2022/03/08 10:50:17;;;;;;;9.27;8.13;;;6.70;99.90;;;;;;4991445;28;20046;-72
2022/03/08 10:52:45;;;;;;;11.00;7.57;;;6.80;99.90;;;;;;4998053;28;20540;-74
2022/03/08 10:55:18;;;;;;;12.30;8.52;;;6.80;99.90;;;;;;4998202;28;20042;-72
2022/03/08 10:57:49;;;;;;;10.27;8.02;;;6.90;99.90;;;;;;4980661;28;20105;-72
2022/03/08 11:00:18;;;;;;;9.57;7.70;;;6.90;99.90;;;;;;4981149;28;20037;-71
2022/03/08 11:03:03;;;;;;;9.18;7.28;;;7.00;99.90;;;;;;4980763;28;20046;-73
2022/03/08 11:05:34;;;;;;;11.68;8.57;;;7.10;99.90;;;;;;4998170;28;20100;-71
2022/03/08 11:07:59;;;;;;;12.18;7.75;;;7.20;99.90;;;;;;4980860;28;20536;-72
2022/03/08 11:10:27;;;;;;;11.10;7.57;;;7.20;99.90;;;;;;4998124;28;20125;-72
2022/03/08 11:12:54;;;;;;;8.73;7.07;;;7.30;99.90;;;;;;4998269;28;20058;-72
2022/03/08 11:15:21;;;;;;;9.18;7.72;;;7.30;99.90;;;;;;4980612;28;20045;-72
2022/03/08 11:17:48;;;;;;;8.98;6.85;;;7.40;99.90;;;;;;4998127;28;20050;-72
2022/03/08 11:20:18;;;;;;;13.88;7.38;;;7.40;99.90;;;;;;4980836;28;20052;-71
2022/03/08 11:22:46;;;;;;;9.25;7.32;;;7.40;99.90;;;;;;4980854;28;20042;-71
2022/03/08 11:25:16;;;;;;;8.68;7.22;;;7.40;99.90;;;;;;4980904;28;20056;-70
2022/03/08 11:27:44;;;;;;;11.60;7.60;;;7.60;99.90;;;;;;4997432;28;20337;-71
2022/03/08 11:30:16;;;;;;;10.52;7.80;;;7.60;99.90;;;;;;4980007;28;20046;-70
2022/03/08 11:32:59;;;;;;;9.25;7.35;;;7.60;99.90;;;;;;4997383;28;20468;-70
2022/03/08 11:35:57;;;;;;;9.38;7.50;;;7.60;99.90;;;;;;4980262;28;20464;-73
2022/03/08 11:38:23;;;;;;;9.90;7.90;;;7.70;99.90;;;;;;4928770;28;20058;-72
2022/03/08 11:40:53;;;;;;;11.15;8.02;;;7.70;99.90;;;;;;4997272;28;20097;-71
2022/03/08 11:43:19;;;;;;;9.95;7.70;;;7.80;99.90;;;;;;4997487;28;20114;-73
2022/03/08 11:45:48;;;;;;;9.35;7.57;;;7.90;99.90;;;;;;4980533;28;20050;-74
2022/03/08 11:48:21;;;;;;;9.48;7.90;;;7.90;99.90;;;;;;4996667;28;20050;-74
2022/03/08 11:50:48;;;;;;;10.27;8.15;;;8.00;99.70;;;;;;4980125;28;20385;-75
2022/03/08 11:53:16;;;;;;;10.43;7.70;;;8.00;99.90;;;;;;4980446;28;20050;-73
2022/03/08 11:55:45;;;;;;;11.68;8.25;;;8.00;99.90;;;;;;4997340;28;20050;-78
2022/03/08 11:58:22;;;;;;;10.40;7.70;;;8.20;99.90;;;;;;4979330;28;20050;-76
2022/03/08 12:00:52;;;;;;;12.57;8.48;;;8.30;99.70;;;;;;4996629;28;20065;-73
2022/03/08 12:03:23;;;;;;;10.93;8.40;;;8.30;99.90;;;;;;4996728;28;20062;-75
2022/03/08 12:06:04;;;;;;;10.05;7.82;;;8.40;99.90;;;;;;4979432;28;20448;-72
2022/03/08 12:08:29;;;;;;;9.85;7.85;;;8.40;99.90;;;;;;4996788;28;20046;-72
2022/03/08 12:11:02;;;;;;;9.27;7.82;;;8.40;99.50;;;;;;4996881;28;20034;-72
2022/03/08 12:13:30;;;;;;;11.45;6.85;;;8.40;99.90;;;;;;4996392;28;20057;-76
2022/03/08 12:16:10;;;;;;;9.15;7.53;;;8.50;99.90;;;;;;4979798;28;20042;-77
2022/03/08 12:18:51;;;;;;;9.13;6.97;;;8.50;99.30;;;;;;4996682;28;20348;-76
2022/03/08 12:21:20;;;;;;;9.35;7.38;;;8.60;98.10;;;;;;4996321;28;20443;-76
2022/03/08 12:23:55;;;;;;;9.85;7.55;;;8.60;99.00;;;;;;4978710;28;20061;-75
2022/03/08 12:26:24;;;;;;;;;;;8.60;98.40;;;;;;4979190;28;20042;-77
2022/03/08 12:29:14;;;;;;;9.95;6.90;;;8.70;98.30;;;;;;4978958;28;20016;-76
2022/03/08 12:31:58;;;;;;;10.02;7.28;;;8.80;99.10;;;;;;4977852;28;20034;-74
2022/03/08 12:34:36;;;;;;;10.95;7.40;;;8.80;98.80;;;;;;4995762;28;20042;-73
2022/03/08 12:37:13;;;;;;;10.85;7.93;;;8.80;98.70;;;;;;4978825;28;20046;-73
2022/03/08 12:39:53;;;;;;;9.10;6.70;;;8.90;98.60;;;;;;4996221;28;20109;-77
2022/03/08 12:42:36;;;;;;;8.50;6.85;;;8.90;98.30;;;;;;4996040;28;20061;-75
2022/03/08 12:45:04;;;;;;;11.30;7.25;;;8.90;97.80;;;;;;4996114;28;20081;-75